sensor_id;sensor_type;location;lat;lon;timestamp;pressure;altitude;pressure_sealevel;temperature;humidity
85922;BME280;76459;41.484;22.090;2024-03-02T00:01:54;99466.63;;;11.19;84.63
85922;BME280;76459;41.484;22.090;2024-03-02T00:04:19;99456.72;;;11.18;85.03
85922;BME280;76459;41.484;22.090;2024-03-02T00:06:45;99455.06;;;11.17;84.45
85922;BME280;76459;41.484;22.090;2024-03-02T00:09:11;99445.97;;;11.17;83.99
85922;BME280;76459;41.484;22.090;2024-03-02T00:11:38;99454.47;;;11.20;84.00
85922;BME280;76459;41.484;22.090;2024-03-02T00:14:04;99454.38;;;11.25;83.73
85922;BME280;76459;41.484;22.090;2024-03-02T00:16:33;99458.16;;;11.30;83.56
85922;BME280;76459;41.484;22.090;2024-03-02T00:19:05;99457.06;;;11.31;83.91
85922;BME280;76459;41.484;22.090;2024-03-02T00:21:32;99448.47;;;11.32;83.47
85922;BME280;76459;41.484;22.090;2024-03-02T00:23:59;99455.41;;;11.30;83.53
85922;BME280;76459;41.484;22.090;2024-03-02T00:26:25;99460.31;;;11.33;83.53
85922;BME280;76459;41.484;22.090;2024-03-02T00:28:54;99454.09;;;11.27;83.87
85922;BME280;76459;41.484;22.090;2024-03-02T00:31:22;99449.47;;;11.22;83.19
85922;BME280;76459;41.484;22.090;2024-03-02T00:33:48;99449.75;;;11.21;83.58
85922;BME280;76459;41.484;22.090;2024-03-02T00:36:16;99447.69;;;11.13;83.63
85922;BME280;76459;41.484;22.090;2024-03-02T00:38:47;99447.31;;;11.19;84.06
85922;BME280;76459;41.484;22.090;2024-03-02T00:41:31;99450.69;;;11.16;84.00
85922;BME280;76459;41.484;22.090;2024-03-02T00:44:00;99451.19;;;11.18;83.47
85922;BME280;76459;41.484;22.090;2024-03-02T00:46:33;99444.66;;;11.14;83.49
85922;BME280;76459;41.484;22.090;2024-03-02T00:49:23;99451.19;;;11.18;83.55
85922;BME280;76459;41.484;22.090;2024-03-02T00:51:51;99448.22;;;11.15;84.01
85922;BME280;76459;41.484;22.090;2024-03-02T00:54:26;99446.50;;;11.19;83.81
85922;BME280;76459;41.484;22.090;2024-03-02T00:56:55;99448.75;;;11.17;83.73
85922;BME280;76459;41.484;22.090;2024-03-02T00:59:22;99445.47;;;11.15;83.49
85922;BME280;76459;41.484;22.090;2024-03-02T01:01:48;99427.69;;;11.07;84.05
85922;BME280;76459;41.484;22.090;2024-03-02T01:04:15;99437.22;;;11.15;83.50
85922;BME280;76459;41.484;22.090;2024-03-02T01:06:42;99442.63;;;11.20;84.22
85922;BME280;76459;41.484;22.090;2024-03-02T01:09:07;99418.78;;;11.10;84.30
85922;BME280;76459;41.484;22.090;2024-03-02T01:11:33;99438.53;;;11.17;83.84
85922;BME280;76459;41.484;22.090;2024-03-02T01:13:59;99418.59;;;11.07;83.06
85922;BME280;76459;41.484;22.090;2024-03-02T01:16:24;99427.38;;;11.09;83.98
85922;BME280;76459;41.484;22.090;2024-03-02T01:18:50;99408.84;;;10.95;83.88
85922;BME280;76459;41.484;22.090;2024-03-02T01:21:15;99424.91;;;11.07;84.47
85922;BME280;76459;41.484;22.090;2024-03-02T01:23:41;99427.88;;;11.11;84.64
85922;BME280;76459;41.484;22.090;2024-03-02T01:26:07;99420.13;;;11.13;83.56
85922;BME280;76459;41.484;22.090;2024-03-02T01:28:32;99417.38;;;11.13;83.27
85922;BME280;76459;41.484;22.090;2024-03-02T01:30:58;99413.22;;;11.15;83.06
85922;BME280;76459;41.484;22.090;2024-03-02T01:33:24;99406.88;;;11.15;83.32
85922;BME280;76459;41.484;22.090;2024-03-02T01:35:49;99395.22;;;11.04;83.14
85922;BME280;76459;41.484;22.090;2024-03-02T01:38:15;99408.81;;;11.14;83.11
85922;BME280;76459;41.484;22.090;2024-03-02T01:40:42;99406.22;;;11.04;83.20
85922;BME280;76459;41.484;22.090;2024-03-02T01:43:07;99406.97;;;10.91;83.67
85922;BME280;76459;41.484;22.090;2024-03-02T01:45:34;99407.38;;;10.84;83.67
85922;BME280;76459;41.484;22.090;2024-03-02T01:48:01;99407.16;;;10.81;83.53
85922;BME280;76459;41.484;22.090;2024-03-02T01:50:29;99405.00;;;10.78;83.26
85922;BME280;76459;41.484;22.090;2024-03-02T01:52:59;99406.34;;;10.80;83.34
85922;BME280;76459;41.484;22.090;2024-03-02T01:55:25;99412.44;;;10.77;83.83
85922;BME280;76459;41.484;22.090;2024-03-02T01:57:51;99415.56;;;10.71;84.37
85922;BME280;76459;41.484;22.090;2024-03-02T02:00:18;99421.09;;;10.71;84.24
85922;BME280;76459;41.484;22.090;2024-03-02T02:02:45;99406.28;;;10.66;83.71
85922;BME280;76459;41.484;22.090;2024-03-02T02:05:11;99417.66;;;10.79;84.24
85922;BME280;76459;41.484;22.090;2024-03-02T02:07:37;99407.75;;;10.78;83.77
85922;BME280;76459;41.484;22.090;2024-03-02T02:10:03;99415.03;;;10.87;83.97
85922;BME280;76459;41.484;22.090;2024-03-02T02:12:29;99424.34;;;10.91;84.17
85922;BME280;76459;41.484;22.090;2024-03-02T02:14:55;99421.69;;;10.86;83.96
85922;BME280;76459;41.484;22.090;2024-03-02T02:17:21;99414.09;;;10.78;83.31
85922;BME280;76459;41.484;22.090;2024-03-02T02:19:46;99428.38;;;10.80;83.75
85922;BME280;76459;41.484;22.090;2024-03-02T02:22:12;99427.66;;;10.75;83.70
85922;BME280;76459;41.484;22.090;2024-03-02T02:24:41;99430.63;;;10.59;84.27
85922;BME280;76459;41.484;22.090;2024-03-02T02:27:08;99427.03;;;10.59;84.18
85922;BME280;76459;41.484;22.090;2024-03-02T02:29:34;99431.06;;;10.66;84.17
85922;BME280;76459;41.484;22.090;2024-03-02T02:32:00;99428.78;;;10.74;83.56
85922;BME280;76459;41.484;22.090;2024-03-02T02:34:25;99432.03;;;10.76;83.46
85922;BME280;76459;41.484;22.090;2024-03-02T02:36:51;99426.53;;;10.76;83.89
85922;BME280;76459;41.484;22.090;2024-03-02T02:39:19;99424.06;;;10.74;83.44
85922;BME280;76459;41.484;22.090;2024-03-02T02:41:45;99422.03;;;10.80;83.91
85922;BME280;76459;41.484;22.090;2024-03-02T02:44:11;99428.00;;;10.87;83.84
85922;BME280;76459;41.484;22.090;2024-03-02T02:46:38;99438.88;;;10.97;83.13
85922;BME280;76459;41.484;22.090;2024-03-02T02:49:04;99428.16;;;10.95;83.64
85922;BME280;76459;41.484;22.090;2024-03-02T02:51:29;99433.06;;;10.99;83.69
85922;BME280;76459;41.484;22.090;2024-03-02T02:53:55;99438.78;;;11.02;83.68
85922;BME280;76459;41.484;22.090;2024-03-02T02:56:20;99437.66;;;11.03;83.66
85922;BME280;76459;41.484;22.090;2024-03-02T02:58:46;99419.88;;;10.95;83.79
85922;BME280;76459;41.484;22.090;2024-03-02T03:01:12;99427.69;;;11.07;83.93
85922;BME280;76459;41.484;22.090;2024-03-02T03:03:37;99403.41;;;10.90;83.91
85922;BME280;76459;41.484;22.090;2024-03-02T03:06:03;99412.13;;;10.98;83.92
85922;BME280;76459;41.484;22.090;2024-03-02T03:08:28;99419.72;;;11.06;84.20
85922;BME280;76459;41.484;22.090;2024-03-02T03:10:54;99427.97;;;11.06;84.08
85922;BME280;76459;41.484;22.090;2024-03-02T03:13:20;99420.22;;;11.08;84.01
85922;BME280;76459;41.484;22.090;2024-03-02T03:15:45;99423.78;;;11.08;83.41
85922;BME280;76459;41.484;22.090;2024-03-02T03:18:11;99418.66;;;11.02;83.36
85922;BME280;76459;41.484;22.090;2024-03-02T03:20:37;99434.00;;;11.08;83.39
85922;BME280;76459;41.484;22.090;2024-03-02T03:23:02;99434.50;;;11.10;83.89
85922;BME280;76459;41.484;22.090;2024-03-02T03:25:29;99440.53;;;11.12;83.38
85922;BME280;76459;41.484;22.090;2024-03-02T03:27:55;99427.16;;;11.05;83.50
85922;BME280;76459;41.484;22.090;2024-03-02T03:30:21;99433.41;;;11.11;83.45
85922;BME280;76459;41.484;22.090;2024-03-02T03:32:46;99438.91;;;11.11;83.59
85922;BME280;76459;41.484;22.090;2024-03-02T03:35:14;99439.22;;;11.09;83.79
85922;BME280;76459;41.484;22.090;2024-03-02T03:37:41;99440.53;;;11.12;83.57
85922;BME280;76459;41.484;22.090;2024-03-02T03:40:07;99430.63;;;11.11;83.56
85922;BME280;76459;41.484;22.090;2024-03-02T03:42:36;99434.72;;;11.13;83.49
85922;BME280;76459;41.484;22.090;2024-03-02T03:45:03;99442.47;;;11.11;83.34
85922;BME280;76459;41.484;22.090;2024-03-02T03:47:31;99425.72;;;11.08;82.90
85922;BME280;76459;41.484;22.090;2024-03-02T03:49:57;99434.00;;;11.08;83.30
85922;BME280;76459;41.484;22.090;2024-03-02T03:52:23;99437.88;;;11.07;83.01
85922;BME280;76459;41.484;22.090;2024-03-02T03:54:49;99434.00;;;11.08;83.48
85922;BME280;76459;41.484;22.090;2024-03-02T03:57:15;99435.03;;;11.12;83.45
85922;BME280;76459;41.484;22.090;2024-03-02T03:59:41;99433.41;;;11.11;83.00
85922;BME280;76459;41.484;22.090;2024-03-02T04:02:06;99438.91;;;11.11;83.16
85922;BME280;76459;41.484;22.090;2024-03-02T04:04:32;99437.78;;;11.12;82.87
85922;BME280;76459;41.484;22.090;2024-03-02T04:06:59;99434.00;;;11.08;83.41
85922;BME280;76459;41.484;22.090;2024-03-02T04:09:24;99435.34;;;11.10;83.21
85922;BME280;76459;41.484;22.090;2024-03-02T04:11:51;99431.03;;;11.04;82.83
85922;BME280;76459;41.484;22.090;2024-03-02T04:14:17;99437.38;;;11.05;82.74
85922;BME280;76459;41.484;22.090;2024-03-02T04:16:42;99440.50;;;10.98;83.23
85922;BME280;76459;41.484;22.090;2024-03-02T04:19:08;99428.56;;;11.03;84.10
85922;BME280;76459;41.484;22.090;2024-03-02T04:21:33;99446.66;;;11.09;82.92
85922;BME280;76459;41.484;22.090;2024-03-02T04:23:59;99448.91;;;11.07;83.38
85922;BME280;76459;41.484;22.090;2024-03-02T04:26:25;99444.22;;;11.07;82.96
85922;BME280;76459;41.484;22.090;2024-03-02T04:28:52;99442.28;;;11.08;82.66
85922;BME280;76459;41.484;22.090;2024-03-02T04:31:17;99441.97;;;11.09;82.24
85922;BME280;76459;41.484;22.090;2024-03-02T04:33:43;99446.66;;;11.09;82.57
85922;BME280;76459;41.484;22.090;2024-03-02T04:36:09;99444.72;;;11.09;82.15
85922;BME280;76459;41.484;22.090;2024-03-02T04:38:38;99439.81;;;11.06;82.10
85922;BME280;76459;41.484;22.090;2024-03-02T04:41:04;99440.94;;;11.05;81.99
85922;BME280;76459;41.484;22.090;2024-03-02T04:43:34;99450.34;;;11.04;81.97
85922;BME280;76459;41.484;22.090;2024-03-02T04:46:00;99448.47;;;11.00;81.77
85922;BME280;76459;41.484;22.090;2024-03-02T04:48:26;99451.38;;;10.89;81.51
85922;BME280;76459;41.484;22.090;2024-03-02T04:50:51;99452.81;;;10.87;82.19
85922;BME280;76459;41.484;22.090;2024-03-02T04:53:17;99454.34;;;10.93;82.23
85922;BME280;76459;41.484;22.090;2024-03-02T04:55:43;99452.03;;;11.00;82.05
85922;BME280;76459;41.484;22.090;2024-03-02T04:58:09;99454.50;;;11.02;82.10
85922;BME280;76459;41.484;22.090;2024-03-02T05:00:34;99448.47;;;11.00;82.49
85922;BME280;76459;41.484;22.090;2024-03-02T05:03:00;99452.78;;;11.06;82.26
85922;BME280;76459;41.484;22.090;2024-03-02T05:05:26;99454.13;;;11.08;82.13
85922;BME280;76459;41.484;22.090;2024-03-02T05:07:52;99462.38;;;11.08;82.32
85922;BME280;76459;41.484;22.090;2024-03-02T05:10:18;99454.63;;;11.10;82.13
85922;BME280;76459;41.484;22.090;2024-03-02T05:12:43;99459.31;;;11.10;81.81
85922;BME280;76459;41.484;22.090;2024-03-02T05:15:10;99459.31;;;11.10;81.94
85922;BME280;76459;41.484;22.090;2024-03-02T05:17:37;99471.16;;;11.10;81.84
85922;BME280;76459;41.484;22.090;2024-03-02T05:20:06;99467.38;;;11.06;81.16
85922;BME280;76459;41.484;22.090;2024-03-02T05:22:36;99458.38;;;11.01;80.95
85922;BME280;76459;41.484;22.090;2024-03-02T05:25:03;99460.31;;;11.00;81.48
85922;BME280;76459;41.484;22.090;2024-03-02T05:27:30;99472.91;;;11.06;81.48
85922;BME280;76459;41.484;22.090;2024-03-02T05:29:55;99470.44;;;11.05;81.36
85922;BME280;76459;41.484;22.090;2024-03-02T05:32:21;99476.47;;;11.07;81.83
85922;BME280;76459;41.484;22.090;2024-03-02T05:34:47;99481.16;;;11.06;81.76
85922;BME280;76459;41.484;22.090;2024-03-02T05:37:13;99481.16;;;11.06;81.50
85922;BME280;76459;41.484;22.090;2024-03-02T05:39:38;99471.84;;;11.02;81.33
85922;BME280;76459;41.484;22.090;2024-03-02T05:42:04;99475.34;;;11.08;81.32
85922;BME280;76459;41.484;22.090;2024-03-02T05:44:30;99478.63;;;11.10;81.72
85922;BME280;76459;41.484;22.090;2024-03-02T05:46:55;99474.53;;;11.07;81.52
85922;BME280;76459;41.484;22.090;2024-03-02T05:49:21;99478.09;;;11.08;81.32
85922;BME280;76459;41.484;22.090;2024-03-02T05:51:47;99486.00;;;11.14;81.04
85922;BME280;76459;41.484;22.090;2024-03-02T05:54:12;99489.59;;;11.15;81.10
85922;BME280;76459;41.484;22.090;2024-03-02T05:56:38;99488.47;;;11.16;81.28
85922;BME280;76459;41.484;22.090;2024-03-02T05:59:04;99490.41;;;11.15;81.01
85922;BME280;76459;41.484;22.090;2024-03-02T06:01:35;99484.34;;;11.13;81.45
85922;BME280;76459;41.484;22.090;2024-03-02T06:04:00;99497.75;;;11.20;81.36
85922;BME280;76459;41.484;22.090;2024-03-02T06:06:26;99501.34;;;11.20;81.45
85922;BME280;76459;41.484;22.090;2024-03-02T06:08:52;99496.13;;;11.19;81.51
85922;BME280;76459;41.484;22.090;2024-03-02T06:11:19;99499.09;;;11.22;81.27
85922;BME280;76459;41.484;22.090;2024-03-02T06:13:45;99490.31;;;11.20;81.75
85922;BME280;76459;41.484;22.090;2024-03-02T06:16:10;99507.34;;;11.22;81.52
85922;BME280;76459;41.484;22.090;2024-03-02T06:18:36;99502.66;;;11.23;81.47
85922;BME280;76459;41.484;22.090;2024-03-02T06:21:02;99504.03;;;11.25;81.22
85922;BME280;76459;41.484;22.090;2024-03-02T06:23:28;99508.31;;;11.32;81.13
85922;BME280;76459;41.484;22.090;2024-03-02T06:25:54;99478.25;;;11.16;81.45
85922;BME280;76459;41.484;22.090;2024-03-02T06:28:19;99511.00;;;11.37;81.57
85922;BME280;76459;41.484;22.090;2024-03-02T06:30:46;99501.09;;;11.36;81.37
85922;BME280;76459;41.484;22.090;2024-03-02T06:33:12;99504.06;;;11.39;81.25
85922;BME280;76459;41.484;22.090;2024-03-02T06:35:37;99517.25;;;11.42;81.72
85922;BME280;76459;41.484;22.090;2024-03-02T06:38:04;99512.78;;;11.46;81.35
85922;BME280;76459;41.484;22.090;2024-03-02T06:40:30;99512.28;;;11.44;80.77
85922;BME280;76459;41.484;22.090;2024-03-02T06:42:55;99529.53;;;11.50;80.82
85922;BME280;76459;41.484;22.090;2024-03-02T06:45:21;99509.50;;;11.44;80.29
85922;BME280;76459;41.484;22.090;2024-03-02T06:47:46;99536.38;;;11.52;80.04
85922;BME280;76459;41.484;22.090;2024-03-02T06:50:12;99534.84;;;11.46;80.08
85922;BME280;76459;41.484;22.090;2024-03-02T06:52:38;99513.97;;;11.40;79.98
85922;BME280;76459;41.484;22.090;2024-03-02T06:55:04;99530.78;;;11.58;79.67
85922;BME280;76459;41.484;22.090;2024-03-02T06:57:30;99538.16;;;11.62;79.42
85922;BME280;76459;41.484;22.090;2024-03-02T06:59:55;99537.84;;;11.64;80.11
85922;BME280;76459;41.484;22.090;2024-03-02T07:02:26;99528.06;;;11.71;79.80
85922;BME280;76459;41.484;22.090;2024-03-02T07:04:55;99533.78;;;11.75;79.71
85922;BME280;76459;41.484;22.090;2024-03-02T07:07:20;99543.03;;;11.84;79.60
85922;BME280;76459;41.484;22.090;2024-03-02T07:09:46;99547.06;;;11.92;79.57
85922;BME280;76459;41.484;22.090;2024-03-02T07:12:13;99547.78;;;11.97;79.56
85922;BME280;76459;41.484;22.090;2024-03-02T07:14:39;99544.09;;;12.02;79.44
85922;BME280;76459;41.484;22.090;2024-03-02T07:17:23;99537.38;;;12.08;79.24
85922;BME280;76459;41.484;22.090;2024-03-02T07:19:48;99541.56;;;12.19;79.23
85922;BME280;76459;41.484;22.090;2024-03-02T07:22:14;99544.34;;;12.33;79.06
85922;BME280;76459;41.484;22.090;2024-03-02T07:24:43;99542.63;;;12.37;79.09
85922;BME280;76459;41.484;22.090;2024-03-02T07:27:09;99553.25;;;12.57;78.20
85922;BME280;76459;41.484;22.090;2024-03-02T07:29:36;99547.38;;;12.73;78.27
85922;BME280;76459;41.484;22.090;2024-03-02T07:32:01;99546.44;;;12.91;78.74
85922;BME280;76459;41.484;22.090;2024-03-02T07:34:27;99550.22;;;12.95;78.10
85922;BME280;76459;41.484;22.090;2024-03-02T07:36:53;99555.00;;;13.03;77.71
85922;BME280;76459;41.484;22.090;2024-03-02T07:39:18;99560.13;;;12.96;77.65
85922;BME280;76459;41.484;22.090;2024-03-02T07:41:46;99566.81;;;12.95;77.82
85922;BME280;76459;41.484;22.090;2024-03-02T07:44:12;99566.63;;;12.91;77.17
85922;BME280;76459;41.484;22.090;2024-03-02T07:46:48;99568.25;;;12.92;77.06
85922;BME280;76459;41.484;22.090;2024-03-02T07:49:20;99555.88;;;12.76;77.84
85922;BME280;76459;41.484;22.090;2024-03-02T07:51:46;99579.44;;;12.87;77.63
85922;BME280;76459;41.484;22.090;2024-03-02T07:54:12;99574.19;;;12.86;77.79
85922;BME280;76459;41.484;22.090;2024-03-02T07:56:37;99571.94;;;12.88;77.76
85922;BME280;76459;41.484;22.090;2024-03-02T07:59:03;99580.84;;;12.85;77.67
85922;BME280;76459;41.484;22.090;2024-03-02T08:01:32;99583.41;;;12.81;77.60
85922;BME280;76459;41.484;22.090;2024-03-02T08:03:59;99575.31;;;12.85;77.45
85922;BME280;76459;41.484;22.090;2024-03-02T08:06:29;99581.66;;;12.85;77.24
85922;BME280;76459;41.484;22.090;2024-03-02T08:08:59;99586.88;;;12.87;76.35
85922;BME280;76459;41.484;22.090;2024-03-02T08:11:25;99582.16;;;13.01;76.45
85922;BME280;76459;41.484;22.090;2024-03-02T08:13:52;99584.81;;;13.20;76.05
85922;BME280;76459;41.484;22.090;2024-03-02T08:16:21;99577.53;;;13.46;73.54
85922;BME280;76459;41.484;22.090;2024-03-02T08:18:48;99582.59;;;13.67;73.29
85922;BME280;76459;41.484;22.090;2024-03-02T08:21:14;99572.63;;;13.88;72.67
85922;BME280;76459;41.484;22.090;2024-03-02T08:23:40;99576.78;;;13.99;71.80
85922;BME280;76459;41.484;22.090;2024-03-02T08:26:07;99579.53;;;14.22;71.32
85922;BME280;76459;41.484;22.090;2024-03-02T08:28:33;99578.34;;;14.45;69.26
85922;BME280;76459;41.484;22.090;2024-03-02T08:30:59;99575.31;;;14.64;67.86
85922;BME280;76459;41.484;22.090;2024-03-02T08:33:24;99582.03;;;14.72;66.70
85922;BME280;76459;41.484;22.090;2024-03-02T08:35:50;99571.56;;;14.68;67.41
85922;BME280;76459;41.484;22.090;2024-03-02T08:38:16;99575.94;;;14.61;67.96
85922;BME280;76459;41.484;22.090;2024-03-02T08:40:41;99581.50;;;14.52;68.14
85922;BME280;76459;41.484;22.090;2024-03-02T08:43:07;99583.75;;;14.50;68.26
85922;BME280;76459;41.484;22.090;2024-03-02T08:45:33;99532.44;;;14.22;68.23
85922;BME280;76459;41.484;22.090;2024-03-02T08:48:00;99580.59;;;14.43;67.65
85922;BME280;76459;41.484;22.090;2024-03-02T08:50:26;99580.69;;;14.29;67.18
85922;BME280;76459;41.484;22.090;2024-03-02T08:52:51;99577.56;;;14.22;67.45
85922;BME280;76459;41.484;22.090;2024-03-02T08:55:17;99574.94;;;14.17;68.12
85922;BME280;76459;41.484;22.090;2024-03-02T08:57:42;99577.09;;;14.29;68.25
85922;BME280;76459;41.484;22.090;2024-03-02T09:00:08;99582.03;;;14.32;67.76
85922;BME280;76459;41.484;22.090;2024-03-02T09:02:34;99574.31;;;14.29;66.24
85922;BME280;76459;41.484;22.090;2024-03-02T09:05:01;99574.53;;;14.32;67.47
85922;BME280;76459;41.484;22.090;2024-03-02T09:07:27;99580.31;;;14.45;66.25
85922;BME280;76459;41.484;22.090;2024-03-02T09:09:52;99572.69;;;14.59;66.29
85922;BME280;76459;41.484;22.090;2024-03-02T09:12:18;99581.53;;;14.69;66.06
85922;BME280;76459;41.484;22.090;2024-03-02T09:14:44;99555.31;;;14.84;66.38
85922;BME280;76459;41.484;22.090;2024-03-02T09:17:11;99578.56;;;15.23;65.26
85922;BME280;76459;41.484;22.090;2024-03-02T09:19:37;99572.66;;;15.42;64.57
85922;BME280;76459;41.484;22.090;2024-03-02T09:22:03;99572.84;;;15.54;64.29
85922;BME280;76459;41.484;22.090;2024-03-02T09:24:31;99566.19;;;15.64;64.25
85922;BME280;76459;41.484;22.090;2024-03-02T09:26:59;99572.69;;;15.76;63.07
85922;BME280;76459;41.484;22.090;2024-03-02T09:29:24;99571.06;;;15.84;62.10
85922;BME280;76459;41.484;22.090;2024-03-02T09:31:50;99567.75;;;15.91;61.08
85922;BME280;76459;41.484;22.090;2024-03-02T09:34:16;99567.59;;;15.96;60.67
85922;BME280;76459;41.484;22.090;2024-03-02T09:36:42;99567.75;;;15.99;59.90
85922;BME280;76459;41.484;22.090;2024-03-02T09:39:08;99555.81;;;15.99;59.17
85922;BME280;76459;41.484;22.090;2024-03-02T09:41:38;99560.88;;;16.05;59.19
85922;BME280;76459;41.484;22.090;2024-03-02T09:44:04;99553.53;;;16.01;59.08
85922;BME280;76459;41.484;22.090;2024-03-02T09:46:31;99559.41;;;15.99;58.01
85922;BME280;76459;41.484;22.090;2024-03-02T09:48:58;99555.16;;;16.02;58.20
85922;BME280;76459;41.484;22.090;2024-03-02T09:51:24;99558.75;;;16.02;57.89
85922;BME280;76459;41.484;22.090;2024-03-02T09:53:50;99556.63;;;15.99;56.70
85922;BME280;76459;41.484;22.090;2024-03-02T09:56:16;99555.34;;;15.97;56.99
85922;BME280;76459;41.484;22.090;2024-03-02T09:58:41;99542.59;;;15.96;57.14
85922;BME280;76459;41.484;22.090;2024-03-02T10:01:08;99549.91;;;16.09;57.73
85922;BME280;76459;41.484;22.090;2024-03-02T10:03:37;99542.69;;;16.17;57.31
85922;BME280;76459;41.484;22.090;2024-03-02T10:06:25;99546.41;;;16.29;57.19
85922;BME280;76459;41.484;22.090;2024-03-02T10:08:51;99547.81;;;16.44;56.76
85922;BME280;76459;41.484;22.090;2024-03-02T10:11:30;99549.59;;;16.49;55.81
85922;BME280;76459;41.484;22.090;2024-03-02T10:14:24;99544.84;;;16.49;56.27
85922;BME280;76459;41.484;22.090;2024-03-02T10:16:50;99549.41;;;16.54;56.84
85922;BME280;76459;41.484;22.090;2024-03-02T10:19:17;99547.66;;;16.40;56.11
85922;BME280;76459;41.484;22.090;2024-03-02T10:21:47;99555.50;;;16.47;56.53
85922;BME280;76459;41.484;22.090;2024-03-02T10:24:13;99543.34;;;16.52;56.15
85922;BME280;76459;41.484;22.090;2024-03-02T10:26:39;99549.41;;;16.54;55.19
85922;BME280;76459;41.484;22.090;2024-03-02T10:29:04;99545.75;;;16.62;54.66
85922;BME280;76459;41.484;22.090;2024-03-02T10:31:30;99537.41;;;16.70;53.41
85922;BME280;76459;41.484;22.090;2024-03-02T10:33:57;99526.63;;;16.69;56.16
85922;BME280;76459;41.484;22.090;2024-03-02T10:36:23;99536.59;;;16.70;54.71
85922;BME280;76459;41.484;22.090;2024-03-02T10:38:51;99534.75;;;16.74;53.84
85922;BME280;76459;41.484;22.090;2024-03-02T10:41:23;99531.13;;;16.82;53.65
85922;BME280;76459;41.484;22.090;2024-03-02T10:43:52;99521.38;;;16.67;52.69
85922;BME280;76459;41.484;22.090;2024-03-02T10:46:21;99518.59;;;16.67;54.33
85922;BME280;76459;41.484;22.090;2024-03-02T10:48:48;99513.59;;;16.82;55.95
85922;BME280;76459;41.484;22.090;2024-03-02T10:51:15;99509.16;;;16.89;52.68
85922;BME280;76459;41.484;22.090;2024-03-02T10:53:40;99503.25;;;16.91;53.29
85922;BME280;76459;41.484;22.090;2024-03-02T10:56:07;99492.88;;;17.00;53.25
85922;BME280;76459;41.484;22.090;2024-03-02T10:58:37;99492.53;;;17.02;52.38
85922;BME280;76459;41.484;22.090;2024-03-02T11:01:03;99491.19;;;17.08;51.67
85922;BME280;76459;41.484;22.090;2024-03-02T11:03:35;99486.88;;;17.10;52.13
85922;BME280;76459;41.484;22.090;2024-03-02T11:06:07;99478.59;;;17.22;52.36
85922;BME280;76459;41.484;22.090;2024-03-02T11:08:34;99478.44;;;17.40;52.41
85922;BME280;76459;41.484;22.090;2024-03-02T11:11:07;99472.69;;;17.57;51.62
85922;BME280;76459;41.484;22.090;2024-03-02T11:13:37;99476.59;;;17.77;50.37
85922;BME280;76459;41.484;22.090;2024-03-02T11:16:24;99463.41;;;17.86;49.73
85922;BME280;76459;41.484;22.090;2024-03-02T11:18:52;99462.22;;;17.75;51.04
85922;BME280;76459;41.484;22.090;2024-03-02T11:21:18;99466.78;;;17.79;50.65
85922;BME280;76459;41.484;22.090;2024-03-02T11:23:44;99458.41;;;17.79;50.08
85922;BME280;76459;41.484;22.090;2024-03-02T11:26:22;99461.41;;;17.74;49.23
85922;BME280;76459;41.484;22.090;2024-03-02T11:28:52;99449.56;;;17.77;48.66
85922;BME280;76459;41.484;22.090;2024-03-02T11:31:18;99443.16;;;17.77;48.85
85922;BME280;76459;41.484;22.090;2024-03-02T11:33:44;99449.59;;;17.90;49.04
85922;BME280;76459;41.484;22.090;2024-03-02T11:36:09;99452.38;;;17.90;49.22
85922;BME280;76459;41.484;22.090;2024-03-02T11:38:35;99442.41;;;17.89;49.24
85922;BME280;76459;41.484;22.090;2024-03-02T11:41:02;99449.09;;;17.88;49.95
85922;BME280;76459;41.484;22.090;2024-03-02T11:43:30;99441.00;;;17.82;49.55
85922;BME280;76459;41.484;22.090;2024-03-02T11:46:04;99436.22;;;17.83;49.32
85922;BME280;76459;41.484;22.090;2024-03-02T11:48:32;99435.53;;;17.86;49.44
85922;BME280;76459;41.484;22.090;2024-03-02T11:51:00;99429.47;;;17.72;51.20
85922;BME280;76459;41.484;22.090;2024-03-02T11:53:27;99421.28;;;17.67;50.67
85922;BME280;76459;41.484;22.090;2024-03-02T11:55:58;99432.03;;;17.77;50.27
85922;BME280;76459;41.484;22.090;2024-03-02T11:58:24;99422.41;;;17.87;50.05
85922;BME280;76459;41.484;22.090;2024-03-02T12:00:52;99417.66;;;17.87;50.06
85922;BME280;76459;41.484;22.090;2024-03-02T12:03:21;99417.69;;;17.99;49.61
85922;BME280;76459;41.484;22.090;2024-03-02T12:05:53;99414.09;;;18.11;50.69
85922;BME280;76459;41.484;22.090;2024-03-02T12:08:19;99412.44;;;18.22;48.95
85922;BME280;76459;41.484;22.090;2024-03-02T12:11:05;99409.66;;;18.34;49.16
85922;BME280;76459;41.484;22.090;2024-03-02T12:13:31;99403.72;;;18.36;46.14
85922;BME280;76459;41.484;22.090;2024-03-02T12:15:58;99403.94;;;18.43;45.95
85922;BME280;76459;41.484;22.090;2024-03-02T12:18:24;99406.47;;;18.48;45.20
85922;BME280;76459;41.484;22.090;2024-03-02T12:20:50;99407.28;;;18.49;45.78
85922;BME280;76459;41.484;22.090;2024-03-02T12:23:24;99408.25;;;18.40;47.69
85922;BME280;76459;41.484;22.090;2024-03-02T12:25:50;99408.59;;;18.39;47.27
85922;BME280;76459;41.484;22.090;2024-03-02T12:28:16;99407.78;;;18.38;47.02
85922;BME280;76459;41.484;22.090;2024-03-02T12:30:41;99400.91;;;18.36;47.05
85922;BME280;76459;41.484;22.090;2024-03-02T12:33:07;99408.03;;;18.33;47.23
85922;BME280;76459;41.484;22.090;2024-03-02T12:35:32;99403.00;;;18.39;47.21
85922;BME280;76459;41.484;22.090;2024-03-02T12:37:58;99399.66;;;18.33;46.86
85922;BME280;76459;41.484;22.090;2024-03-02T12:40:24;99396.75;;;18.30;47.14
85922;BME280;76459;41.484;22.090;2024-03-02T12:42:50;99398.59;;;18.26;47.14
85922;BME280;76459;41.484;22.090;2024-03-02T12:45:16;99386.41;;;18.30;47.37
85922;BME280;76459;41.484;22.090;2024-03-02T12:47:49;99390.13;;;18.34;47.14
85922;BME280;76459;41.484;22.090;2024-03-02T12:50:14;99382.34;;;18.28;47.15